West Louisville, Kentucky
Current Conditions -  °F | °C
As of 9:56 AM on Monday 26 Jan 2015 (Local Time) from KOWB Reporting Station
Overcast Overcast  
Wind Chill: 24°   Ceiling: 1600
Heat Index: 32°   Visibility: 10mi
Dew Point: 27°   Wind: 10mph
Humidity: 82%   Direction: 330°NNW
Pressure: 30.03"   Gusts: NA
Location:  37.7°N, 87.29°W
Report Text: KOWB 261556Z 33009KT 10SM OVC016 00/M03 A3003 RMK AO2 T00001027 SLP173
Loading
Personal Weather Stations






























Interactive Weather Map New forecast layout! Learn more

10-Day Weather Forecast

Advertisements
Track Severe Weather on mobile